createdAt,value
2018-08-04T00:00:16.460Z,16.53
2018-08-04T00:02:45.882Z,14.60
2018-08-04T00:05:15.452Z,15.87
2018-08-04T00:07:44.867Z,15.70
2018-08-04T00:10:17.409Z,16.00
2018-08-04T00:12:48.495Z,16.20
2018-08-04T00:15:18.345Z,15.93
2018-08-04T00:17:48.383Z,16.40
2018-08-04T00:20:17.972Z,15.70
2018-08-04T00:22:47.470Z,16.17
2018-08-04T00:25:16.879Z,15.10
2018-08-04T00:27:47.000Z,14.70
2018-08-04T00:30:16.462Z,16.10
2018-08-04T00:32:45.848Z,16.07
2018-08-04T00:35:15.372Z,15.63
2018-08-04T00:37:44.764Z,15.93
2018-08-04T00:40:14.256Z,15.90
2018-08-04T00:42:43.655Z,15.40
2018-08-04T00:45:13.164Z,15.70
2018-08-04T00:47:42.917Z,15.80
2018-08-04T00:50:12.311Z,15.90
2018-08-04T00:52:41.695Z,15.90
2018-08-04T00:55:11.098Z,16.10
2018-08-04T00:57:40.460Z,16.13
2018-08-04T01:00:09.863Z,17.30
2018-08-04T01:02:39.251Z,16.50
2018-08-04T01:05:08.679Z,16.10
2018-08-04T01:07:38.043Z,17.33
2018-08-04T01:10:07.479Z,16.57
2018-08-04T01:12:36.867Z,16.50
2018-08-04T01:15:06.274Z,15.97
2018-08-04T01:17:35.696Z,17.93
2018-08-04T01:20:05.416Z,16.57
2018-08-04T01:22:36.470Z,17.70
2018-08-04T01:25:06.700Z,17.60
2018-08-04T01:27:36.091Z,16.80
2018-08-04T01:30:05.937Z,16.60
2018-08-04T01:32:35.335Z,17.73
2018-08-04T01:35:04.742Z,16.63
2018-08-04T01:37:34.162Z,16.80
2018-08-04T01:40:03.935Z,17.00
2018-08-04T01:42:33.328Z,16.17
2018-08-04T01:45:02.751Z,16.30
2018-08-04T01:47:32.613Z,16.60
2018-08-04T01:50:02.010Z,16.10
2018-08-04T01:52:31.443Z,16.53
2018-08-04T01:55:00.859Z,16.60
2018-08-04T01:57:30.290Z,16.13
2018-08-04T01:59:59.661Z,17.30
2018-08-04T02:02:29.101Z,18.57
2018-08-04T02:04:58.533Z,17.40
2018-08-04T02:07:28.249Z,17.10
2018-08-04T02:09:57.674Z,17.43
2018-08-04T02:12:27.324Z,17.93
2018-08-04T02:14:56.383Z,17.10
2018-08-04T02:17:25.666Z,16.87
2018-08-04T02:19:55.072Z,17.00
2018-08-04T02:22:24.433Z,17.07
2018-08-04T02:24:53.898Z,17.10
2018-08-04T02:27:23.284Z,17.53
2018-08-04T02:29:52.749Z,17.10
2018-08-04T02:32:22.119Z,17.40
2018-08-04T02:34:51.703Z,17.93
2018-08-04T02:37:21.154Z,17.40
2018-08-04T02:39:50.653Z,17.43
2018-08-04T02:42:20.023Z,18.00
2018-08-04T02:44:49.464Z,16.63
2018-08-04T02:47:18.855Z,17.50
2018-08-04T02:49:48.236Z,17.90
2018-08-04T02:52:17.538Z,16.23
2018-08-04T02:54:46.909Z,17.50
2018-08-04T02:57:16.268Z,18.07
2018-08-04T02:59:45.264Z,17.50
2018-08-04T03:02:14.711Z,18.03
2018-08-04T03:04:44.172Z,17.73
2018-08-04T03:07:13.152Z,18.47
2018-08-04T03:09:42.383Z,18.80
2018-08-04T03:12:11.776Z,18.67
2018-08-04T03:14:41.111Z,17.90
2018-08-04T03:17:10.480Z,18.50
2018-08-04T03:19:39.808Z,18.90
2018-08-04T03:22:09.240Z,18.20
2018-08-04T03:24:38.573Z,18.37
2018-08-04T03:27:07.948Z,19.50
2018-08-04T03:29:37.309Z,19.40
2018-08-04T03:32:06.925Z,18.40
2018-08-04T03:34:36.247Z,17.77
2018-08-04T03:37:05.636Z,19.40
2018-08-04T03:39:35.331Z,17.90
2018-08-04T03:42:04.734Z,18.50
2018-08-04T03:44:34.047Z,18.93
2018-08-04T03:47:03.439Z,19.97
2018-08-04T03:49:32.807Z,20.23
2018-08-04T03:52:02.184Z,17.70
2018-08-04T03:54:31.498Z,18.97
2018-08-04T03:57:00.874Z,19.20
2018-08-04T03:59:30.258Z,18.70
2018-08-04T04:01:59.638Z,17.33
2018-08-04T04:04:29.379Z,17.33
2018-08-04T04:06:58.798Z,17.70
2018-08-04T04:09:28.114Z,19.80
2018-08-04T04:11:57.464Z,18.57
2018-08-04T04:14:26.793Z,18.77
2018-08-04T04:16:56.137Z,18.00
2018-08-04T04:19:25.569Z,18.60
2018-08-04T04:21:54.921Z,18.80
2018-08-04T04:24:24.264Z,19.23
2018-08-04T04:26:53.600Z,19.20
2018-08-04T04:29:22.943Z,17.83
2018-08-04T04:31:52.320Z,19.90
2018-08-04T04:34:21.639Z,18.80
2018-08-04T04:36:51.027Z,19.63
2018-08-04T04:39:20.387Z,19.80
2018-08-04T04:41:50.139Z,20.53
2018-08-04T04:44:19.493Z,20.33
2018-08-04T04:46:48.864Z,21.70
2018-08-04T04:49:18.215Z,22.00
2018-08-04T04:51:47.527Z,21.40
2018-08-04T04:54:16.529Z,20.80
2018-08-04T04:56:45.787Z,21.80
2018-08-04T04:59:15.192Z,19.90
2018-08-04T05:01:44.548Z,19.43
2018-08-04T05:04:13.944Z,19.80
2018-08-04T05:06:43.471Z,21.57
2018-08-04T05:09:12.853Z,21.83
2018-08-04T05:11:42.186Z,20.57
2018-08-04T05:14:11.553Z,22.50
2018-08-04T05:16:40.879Z,22.73
2018-08-04T05:19:10.222Z,23.37
2018-08-04T05:21:39.527Z,22.50
2018-08-04T05:24:08.883Z,21.53
2018-08-04T05:26:38.207Z,22.40
2018-08-04T05:29:07.563Z,22.70
2018-08-04T05:31:36.878Z,24.27
2018-08-04T05:34:06.243Z,22.17
2018-08-04T05:36:35.581Z,21.60
2018-08-04T05:39:08.171Z,21.50
2018-08-04T05:41:37.541Z,22.60
2018-08-04T05:44:06.923Z,22.80
2018-08-04T05:46:36.311Z,21.37
2018-08-04T05:49:05.613Z,20.60
2018-08-04T05:51:35.009Z,20.50
2018-08-04T05:54:04.326Z,21.20
2018-08-04T05:56:33.671Z,21.57
2018-08-04T05:59:03.052Z,20.17
2018-08-04T06:01:32.429Z,19.67
2018-08-04T06:04:01.771Z,20.00
2018-08-04T06:06:31.106Z,19.00
2018-08-04T06:09:00.429Z,18.90
2018-08-04T06:11:30.203Z,18.90
2018-08-04T06:13:59.545Z,17.30
2018-08-04T06:16:28.930Z,18.30
2018-08-04T06:18:58.247Z,19.17
2018-08-04T06:21:27.900Z,18.20
2018-08-04T06:23:57.277Z,18.23
2018-08-04T06:26:26.633Z,19.07
2018-08-04T06:28:56.019Z,19.40
2018-08-04T06:31:25.383Z,20.43
2018-08-04T06:33:54.783Z,19.00
2018-08-04T06:36:24.164Z,19.73
2018-08-04T06:38:53.485Z,19.13
2018-08-04T06:41:22.830Z,18.97
2018-08-04T06:43:52.332Z,17.80
2018-08-04T06:46:21.804Z,20.33
2018-08-04T06:48:51.135Z,18.33
2018-08-04T06:51:20.077Z,17.60
2018-08-04T06:53:49.320Z,18.00
2018-08-04T06:56:18.260Z,17.83
2018-08-04T06:58:47.191Z,17.97
2018-08-04T07:01:16.407Z,16.50
2018-08-04T07:03:45.768Z,17.23
2018-08-04T07:06:15.081Z,18.70
2018-08-04T07:08:44.444Z,17.77
2018-08-04T07:11:13.775Z,15.07
2018-08-04T07:13:42.779Z,16.10
2018-08-04T07:16:12.002Z,16.63
2018-08-04T07:18:41.388Z,17.93
2018-08-04T07:21:10.695Z,17.33
2018-08-04T07:23:40.079Z,17.00
2018-08-04T07:26:09.435Z,19.23
2018-08-04T07:28:38.790Z,18.57
2018-08-04T07:31:08.230Z,19.60
2018-08-04T07:33:37.607Z,21.87
2018-08-04T07:36:06.939Z,21.47
2018-08-04T07:38:36.385Z,22.43
2018-08-04T07:41:05.736Z,19.83
2018-08-04T07:43:35.103Z,20.30
2018-08-04T07:46:04.447Z,20.40
2018-08-04T07:48:33.779Z,21.50
2018-08-04T07:51:03.142Z,19.47
2018-08-04T07:53:32.499Z,20.23
2018-08-04T07:56:01.799Z,19.83
2018-08-04T07:58:31.189Z,20.37
2018-08-04T08:01:00.507Z,20.53
2018-08-04T08:03:30.183Z,22.47
2018-08-04T08:05:59.559Z,21.10
2018-08-04T08:08:29.328Z,22.47
2018-08-04T08:10:58.742Z,22.03
2018-08-04T08:13:28.057Z,19.33
2018-08-04T08:15:57.423Z,20.70
2018-08-04T08:18:27.281Z,22.70
2018-08-04T08:20:57.089Z,21.00
2018-08-04T08:23:26.979Z,22.70
2018-08-04T08:26:02.726Z,21.63
2018-08-04T08:28:32.045Z,18.93
2018-08-04T08:31:01.418Z,20.00
2018-08-04T08:33:30.792Z,20.73
2018-08-04T08:36:00.224Z,20.30
2018-08-04T08:38:30.141Z,20.13
2018-08-04T08:41:00.053Z,19.23
2018-08-04T08:43:29.650Z,18.67
2018-08-04T08:45:59.397Z,20.40
2018-08-04T08:48:28.745Z,19.40
2018-08-04T08:50:58.428Z,20.17
2018-08-04T08:53:27.590Z,18.60
2018-08-04T08:55:57.170Z,17.47
2018-08-04T08:58:26.487Z,18.23
2018-08-04T09:00:55.851Z,17.03
2018-08-04T09:03:25.172Z,17.37
2018-08-04T09:05:54.563Z,17.30
2018-08-04T09:08:24.285Z,16.27
2018-08-04T09:10:53.659Z,16.83
2018-08-04T09:13:23.024Z,18.00
2018-08-04T09:15:52.402Z,16.83
2018-08-04T09:18:22.080Z,17.53
2018-08-04T09:20:51.374Z,18.57
2018-08-04T09:23:20.733Z,15.57
2018-08-04T09:25:50.126Z,15.83
2018-08-04T09:28:19.507Z,16.33
2018-08-04T09:30:48.914Z,15.17
2018-08-04T09:33:18.314Z,14.67
2018-08-04T09:35:47.648Z,15.70
2018-08-04T09:38:23.626Z,16.83
2018-08-04T09:40:52.999Z,15.90
2018-08-04T09:43:22.400Z,16.23
2018-08-04T09:45:51.801Z,15.90
2018-08-04T09:48:21.151Z,16.70
2018-08-04T09:50:50.476Z,15.40
2018-08-04T09:53:19.851Z,18.63
2018-08-04T09:55:49.188Z,16.60
2018-08-04T09:58:18.564Z,17.00
2018-08-04T10:00:53.296Z,15.63
2018-08-04T10:03:22.667Z,15.63
2018-08-04T10:05:52.008Z,14.50
2018-08-04T10:08:21.479Z,13.60
2018-08-04T10:10:50.815Z,15.73
2018-08-04T10:13:20.172Z,15.17
2018-08-04T10:15:49.722Z,15.00
2018-08-04T10:18:22.032Z,14.00
2018-08-04T10:20:51.528Z,13.57
2018-08-04T10:23:21.174Z,15.47
2018-08-04T10:25:50.588Z,14.80
2018-08-04T10:28:19.972Z,14.10
2018-08-04T10:30:49.356Z,14.67
2018-08-04T10:33:18.718Z,15.00
2018-08-04T10:35:48.103Z,15.77
2018-08-04T10:38:17.950Z,15.90
2018-08-04T10:40:47.360Z,14.47
2018-08-04T10:43:16.800Z,14.90
2018-08-04T10:45:46.229Z,16.20
2018-08-04T10:48:15.942Z,16.07
2018-08-04T10:50:45.390Z,14.13
2018-08-04T10:53:14.755Z,15.53
2018-08-04T10:55:44.120Z,13.37
2018-08-04T10:58:13.490Z,13.97
2018-08-04T11:00:42.830Z,12.83
2018-08-04T11:03:12.162Z,14.63
2018-08-04T11:05:41.719Z,14.47
2018-08-04T11:08:11.040Z,14.20
2018-08-04T11:10:40.448Z,13.97
2018-08-04T11:13:09.791Z,14.33
2018-08-04T11:15:39.122Z,14.80
2018-08-04T11:18:08.505Z,13.80
2018-08-04T11:20:37.888Z,14.30
2018-08-04T11:23:07.193Z,13.50
2018-08-04T11:25:36.567Z,15.57
2018-08-04T11:28:06.126Z,14.53
2018-08-04T11:30:35.566Z,14.43
2018-08-04T11:33:04.952Z,12.80
2018-08-04T11:35:34.303Z,13.07
2018-08-04T11:38:03.667Z,13.67
2018-08-04T11:40:33.061Z,14.67
2018-08-04T11:43:02.424Z,13.50
2018-08-04T11:45:31.919Z,13.97
2018-08-04T11:48:01.603Z,13.00
2018-08-04T11:50:30.963Z,12.53
2018-08-04T11:53:00.363Z,12.80
2018-08-04T11:55:29.689Z,12.30
2018-08-04T11:58:01.856Z,12.50
2018-08-04T12:00:31.186Z,13.20
2018-08-04T12:03:00.568Z,12.20
2018-08-04T12:05:29.933Z,12.60
2018-08-04T12:07:59.303Z,12.43
2018-08-04T12:10:28.695Z,12.10
2018-08-04T12:12:58.036Z,12.03
2018-08-04T12:15:27.386Z,12.43
2018-08-04T12:17:56.731Z,11.47
2018-08-04T12:20:26.088Z,12.70
2018-08-04T12:22:55.764Z,11.17
2018-08-04T12:25:25.136Z,11.20
2018-08-04T12:27:54.466Z,12.20
2018-08-04T12:30:23.798Z,11.20
2018-08-04T12:32:53.123Z,11.97
2018-08-04T12:35:22.460Z,12.17
2018-08-04T12:37:51.854Z,12.70
2018-08-04T12:40:21.521Z,11.33
2018-08-04T12:42:51.179Z,12.33
2018-08-04T12:45:20.459Z,11.40
2018-08-04T12:47:49.745Z,11.47
2018-08-04T12:50:19.104Z,12.40
2018-08-04T12:52:48.451Z,12.57
2018-08-04T12:55:17.906Z,11.90
2018-08-04T12:57:47.346Z,11.93
2018-08-04T13:00:16.702Z,11.27
2018-08-04T13:02:46.458Z,11.40
2018-08-04T13:05:15.839Z,11.37
2018-08-04T13:07:45.164Z,12.07
2018-08-04T13:10:14.554Z,13.50
2018-08-04T13:12:43.603Z,11.67
2018-08-04T13:15:12.863Z,10.33
2018-08-04T13:17:42.234Z,11.23
2018-08-04T13:20:11.587Z,10.20
2018-08-04T13:22:40.920Z,10.70
2018-08-04T13:25:10.251Z,12.83
2018-08-04T13:27:39.591Z,12.87
2018-08-04T13:30:08.963Z,12.13
2018-08-04T13:32:38.327Z,13.00
2018-08-04T13:35:07.712Z,13.67
2018-08-04T13:37:37.069Z,13.97
2018-08-04T13:40:06.425Z,12.97
2018-08-04T13:42:35.755Z,14.10
2018-08-04T13:45:05.897Z,12.60
2018-08-04T13:47:35.263Z,13.87
2018-08-04T13:50:05.135Z,13.63
2018-08-04T13:52:34.739Z,13.83
2018-08-04T13:55:04.075Z,13.60
2018-08-04T13:57:33.446Z,13.07
2018-08-04T14:00:02.792Z,13.20
2018-08-04T14:02:32.167Z,12.40
2018-08-04T14:05:01.636Z,12.23
2018-08-04T14:07:31.084Z,12.50
2018-08-04T14:10:00.424Z,11.20
2018-08-04T14:12:29.854Z,13.20
2018-08-04T14:14:59.203Z,11.23
2018-08-04T14:17:28.598Z,11.73
2018-08-04T14:19:58.024Z,11.93
2018-08-04T14:22:27.353Z,12.00
2018-08-04T14:24:56.720Z,12.43
2018-08-04T14:27:26.062Z,12.37
2018-08-04T14:29:56.282Z,11.80
2018-08-04T14:32:25.726Z,12.77
2018-08-04T14:34:55.333Z,13.33
2018-08-04T14:37:24.687Z,13.47
2018-08-04T14:39:54.512Z,13.77
2018-08-04T14:42:23.872Z,13.40
2018-08-04T14:44:53.217Z,13.10
2018-08-04T14:47:22.607Z,13.87
2018-08-04T14:49:51.924Z,14.07
2018-08-04T14:52:21.371Z,15.40
2018-08-04T14:54:51.035Z,15.17
2018-08-04T14:57:20.399Z,14.67
2018-08-04T14:59:49.747Z,14.83
2018-08-04T15:02:19.172Z,15.03
2018-08-04T15:04:48.779Z,14.63
2018-08-04T15:07:18.474Z,15.63
2018-08-04T15:09:47.842Z,14.03
2018-08-04T15:12:17.247Z,14.43
2018-08-04T15:14:46.628Z,14.70
2018-08-04T15:17:15.979Z,13.40
2018-08-04T15:19:45.335Z,12.57
2018-08-04T15:22:14.701Z,11.07
2018-08-04T15:24:44.076Z,11.03
2018-08-04T15:27:13.420Z,10.77
2018-08-04T15:29:42.756Z,11.60
2018-08-04T15:32:12.059Z,10.90
2018-08-04T15:34:41.539Z,10.97
2018-08-04T15:37:10.858Z,10.83
2018-08-04T15:39:40.245Z,10.80
2018-08-04T15:42:09.967Z,10.30
2018-08-04T15:44:39.357Z,10.40
2018-08-04T15:47:08.724Z,10.77
2018-08-04T15:49:38.118Z,11.17
2018-08-04T15:52:07.470Z,11.20
2018-08-04T15:54:36.835Z,11.10
2018-08-04T15:57:06.305Z,11.77
2018-08-04T15:59:35.688Z,11.23
2018-08-04T16:02:05.037Z,10.70
2018-08-04T16:04:34.283Z,11.40
2018-08-04T16:07:03.499Z,11.60
2018-08-04T16:09:32.925Z,11.40
2018-08-04T16:12:02.351Z,10.50
2018-08-04T16:14:31.727Z,11.57
2018-08-04T16:17:01.036Z,19.13
2018-08-04T16:19:30.423Z,18.20
2018-08-04T16:21:59.758Z,14.97
2018-08-04T16:24:29.101Z,11.97
2018-08-04T16:26:58.511Z,12.17
2018-08-04T16:29:27.856Z,11.50
2018-08-04T16:31:57.228Z,12.07
2018-08-04T16:34:26.540Z,10.40
2018-08-04T16:36:55.926Z,10.97
2018-08-04T16:39:25.247Z,10.70
2018-08-04T16:41:54.643Z,10.33
2018-08-04T16:44:23.931Z,10.17
2018-08-04T16:46:53.383Z,11.13
2018-08-04T16:49:22.704Z,10.60
2018-08-04T16:51:52.104Z,10.23
2018-08-04T16:54:21.437Z,10.20
2018-08-04T16:56:50.862Z,10.20
2018-08-04T16:59:20.240Z,10.53
2018-08-04T17:01:50.008Z,10.53
2018-08-04T17:04:19.310Z,9.83
2018-08-04T17:06:48.675Z,11.00
2018-08-04T17:09:18.003Z,10.37
2018-08-04T17:11:47.379Z,10.70
2018-08-04T17:14:17.166Z,14.53
2018-08-04T17:16:46.672Z,14.27
2018-08-04T17:19:16.037Z,14.77
2018-08-04T17:21:45.427Z,14.60
2018-08-04T17:24:14.771Z,14.47
2018-08-04T17:26:44.147Z,14.80
2018-08-04T17:29:13.132Z,15.70
2018-08-04T17:31:42.607Z,16.57
2018-08-04T17:34:11.944Z,16.57
2018-08-04T17:36:41.290Z,15.23
2018-08-04T17:39:11.271Z,15.63
2018-08-04T17:41:40.852Z,15.40
2018-08-04T17:44:10.264Z,14.80
2018-08-04T17:46:39.633Z,17.30
2018-08-04T17:49:08.980Z,16.50
2018-08-04T17:51:38.327Z,15.27
2018-08-04T17:54:07.723Z,16.87
2018-08-04T17:56:37.051Z,13.60
2018-08-04T17:59:06.388Z,15.33
2018-08-04T18:01:35.703Z,16.00
2018-08-04T18:04:05.090Z,15.73
2018-08-04T18:06:34.086Z,16.63
2018-08-04T18:09:03.653Z,16.70
2018-08-04T18:11:33.008Z,16.80
2018-08-04T18:14:02.408Z,16.80
2018-08-04T18:16:31.776Z,16.50
2018-08-04T18:19:01.185Z,15.47
2018-08-04T18:21:32.194Z,15.20
2018-08-04T18:24:01.632Z,14.60
2018-08-04T18:26:31.036Z,15.40
2018-08-04T18:29:00.422Z,15.43
2018-08-04T18:31:29.798Z,15.40
2018-08-04T18:33:59.170Z,15.20
2018-08-04T18:36:28.500Z,15.17
2018-08-04T18:38:57.883Z,14.80
2018-08-04T18:41:27.224Z,17.10
2018-08-04T18:43:56.211Z,15.40
2018-08-04T18:46:25.471Z,17.10
2018-08-04T18:48:54.807Z,16.43
2018-08-04T18:51:24.162Z,15.40
2018-08-04T18:53:53.542Z,14.60
2018-08-04T18:56:22.927Z,16.37
2018-08-04T18:58:52.238Z,15.83
2018-08-04T19:01:21.592Z,17.90
2018-08-04T19:03:50.925Z,16.07
2018-08-04T19:06:20.315Z,15.10
2018-08-04T19:08:49.622Z,15.60
2018-08-04T19:11:18.964Z,16.53
2018-08-04T19:13:48.696Z,15.90
2018-08-04T19:16:18.146Z,15.67
2018-08-04T19:18:47.435Z,16.63
2018-08-04T19:21:16.820Z,16.67
2018-08-04T19:23:45.791Z,15.70
2018-08-04T19:26:15.077Z,17.30
2018-08-04T19:28:44.431Z,16.80
2018-08-04T19:31:13.826Z,16.93
2018-08-04T19:33:43.197Z,17.83
2018-08-04T19:36:12.578Z,15.87
2018-08-04T19:38:41.910Z,16.10
2018-08-04T19:41:11.294Z,16.90
2018-08-04T19:43:40.674Z,16.00
2018-08-04T19:46:10.101Z,14.20
2018-08-04T19:48:39.455Z,15.23
2018-08-04T19:51:08.808Z,16.17
2018-08-04T19:53:38.183Z,15.80
2018-08-04T19:56:07.519Z,16.93
2018-08-04T19:58:36.924Z,16.47
2018-08-04T20:01:06.291Z,16.63
2018-08-04T20:03:35.716Z,15.73
2018-08-04T20:06:05.142Z,15.77
2018-08-04T20:08:34.583Z,16.80
2018-08-04T20:11:03.874Z,16.17
2018-08-04T20:13:33.239Z,15.27
2018-08-04T20:16:02.570Z,16.70
2018-08-04T20:18:31.891Z,16.27
2018-08-04T20:21:01.380Z,17.43
2018-08-04T20:23:30.837Z,16.00
2018-08-04T20:26:00.191Z,17.00
2018-08-04T20:28:29.590Z,17.23
2018-08-04T20:30:58.940Z,16.57
2018-08-04T20:33:28.406Z,16.17
2018-08-04T20:35:57.771Z,16.80
2018-08-04T20:38:27.124Z,15.70
2018-08-04T20:40:56.455Z,15.97
2018-08-04T20:43:25.479Z,15.90
2018-08-04T20:45:54.804Z,17.00
2018-08-04T20:48:24.255Z,17.20
2018-08-04T20:50:53.572Z,18.10
2018-08-04T20:53:23.039Z,17.83
2018-08-04T20:55:52.385Z,15.60
2018-08-04T20:58:21.785Z,17.00
2018-08-04T21:01:02.192Z,17.40
2018-08-04T21:03:31.585Z,17.47
2018-08-04T21:06:00.949Z,16.77
2018-08-04T21:08:30.399Z,17.90
2018-08-04T21:10:59.779Z,19.87
2018-08-04T21:13:29.174Z,18.30
2018-08-04T21:15:58.535Z,20.80
2018-08-04T21:18:28.357Z,19.10
2018-08-04T21:20:57.732Z,18.30
2018-08-04T21:23:27.038Z,19.00
2018-08-04T21:25:56.811Z,19.40
2018-08-04T21:28:26.382Z,19.80
2018-08-04T21:30:55.774Z,19.90
2018-08-04T21:33:25.084Z,18.60
2018-08-04T21:35:54.681Z,18.93
2018-08-04T21:38:24.013Z,18.90
2018-08-04T21:40:53.114Z,18.80
2018-08-04T21:43:22.777Z,21.87
2018-08-04T21:45:52.152Z,19.27
2018-08-04T21:48:21.509Z,19.40
2018-08-04T21:50:50.889Z,18.90
2018-08-04T21:53:19.897Z,19.33
2018-08-04T21:55:49.195Z,18.70
2018-08-04T21:58:18.548Z,19.50
2018-08-04T22:00:53.276Z,21.30
2018-08-04T22:03:22.656Z,17.83
2018-08-04T22:05:52.108Z,18.43
2018-08-04T22:08:32.540Z,19.33
2018-08-04T22:11:02.095Z,20.23
2018-08-04T22:13:31.066Z,18.90
2018-08-04T22:16:00.351Z,37.23
2018-08-04T22:18:29.919Z,24.90
2018-08-04T22:20:59.345Z,29.33
2018-08-04T22:23:28.690Z,28.50
2018-08-04T22:25:58.134Z,24.80
2018-08-04T22:28:27.480Z,18.80
2018-08-04T22:30:56.871Z,18.60
2018-08-04T22:33:26.688Z,19.97
2018-08-04T22:35:56.073Z,20.07
2018-08-04T22:38:25.414Z,20.50
2018-08-04T22:40:54.869Z,19.13
2018-08-04T22:43:24.275Z,19.73
2018-08-04T22:46:01.306Z,19.90
2018-08-04T22:48:30.651Z,19.03
2018-08-04T22:51:00.053Z,18.10
2018-08-04T22:53:30.091Z,18.83
2018-08-04T22:55:59.378Z,19.30
2018-08-04T22:58:28.732Z,19.63
2018-08-04T23:00:58.216Z,21.20
2018-08-04T23:03:27.676Z,20.07
2018-08-04T23:05:57.043Z,22.33
2018-08-04T23:08:26.403Z,19.70
2018-08-04T23:10:55.749Z,19.67
2018-08-04T23:13:25.145Z,21.30
2018-08-04T23:15:54.691Z,20.40
2018-08-04T23:18:24.076Z,22.40
2018-08-04T23:20:53.503Z,20.53
2018-08-04T23:23:22.930Z,20.87
2018-08-04T23:25:51.885Z,20.43
2018-08-04T23:28:20.769Z,20.93
2018-08-04T23:30:50.028Z,19.63
2018-08-04T23:33:19.442Z,20.13
2018-08-04T23:35:48.751Z,19.97
2018-08-04T23:38:18.109Z,21.30
2018-08-04T23:40:47.456Z,23.13
2018-08-04T23:43:16.857Z,23.20
2018-08-04T23:45:46.358Z,22.60
2018-08-04T23:48:15.772Z,22.27
2018-08-04T23:50:45.104Z,25.13
2018-08-04T23:53:14.468Z,23.87
2018-08-04T23:55:43.794Z,23.73
2018-08-04T23:58:13.130Z,23.10
